ADDS METAR Data INFO
IDs: Format: Raw Decoded Include TAF

Data at: 1159 UTC 21 Jun 2018

KDCU 210953Z AUTO 26007KT 3/4SM +RA BR VV020 23/23 A2991 RMK AO2 RAB00 SLP120 P0124 T02280228
KDCU 210942Z AUTO 31009KT 1SM +RA BR FEW014 OVC021 23/22 A2990 RMK AO2 RAB00 P0092 T02280222
KDCU 210927Z AUTO VRB05KT 1/2SM +RA FG BKN014 BKN019 OVC038 23/22 A2991 RMK AO2 RAB00 P0042 T02280222
KDCU 210920Z AUTO 21004KT 1 3/4SM +RA BR BKN017 BKN034 OVC047 23/22 A2992 RMK AO2 RAB00 P0015 T02280222
KDCU 210912Z AUTO 00000KT 7SM -RA BKN019 BKN040 OVC085 23/22 A2990 RMK AO2 RAB00 P0001 T02330222
KDCU 210902Z AUTO 00000KT 9SM VCTS -RA FEW017 BKN049 OVC100 23/22 A2991 RMK AO2 LTG DSNT NE RAB00 P0000 T02330222
KDCU 210853Z AUTO 00000KT 9SM SCT016 BKN050 OVC100 23/22 A2990 RMK AO2 LTG DSNT NE AND SW RAB0754E24 SLP118 P0002 60002 T02330222 55008
KDCU 210253Z AUTO 31003KT 10SM -RA SCT110 26/23 A2994 RMK AO2 RAB41 SLP132 P0000 60000 T02560228 53010
KDCU 210153Z AUTO 00000KT 10SM CLR 25/22 A2993 RMK AO2 RAB14E25 SLP125 P0000 T02500217
KDCU 210053Z AUTO 17004KT 10SM FEW120 27/22 A2992 RMK AO2 SLP125 T02670222
KDCU 202353Z AUTO 00000KT 10SM CLR 28/22 A2991 RMK AO2 SLP122 T02830222 10317 20283 56010
KDCU 202253Z AUTO 34003KT 10SM CLR 30/21 A2992 RMK AO2 SLP122 T03000206
KDCU 202153Z AUTO 33004KT 10SM CLR 30/20 A2993 RMK AO2 SLP128 T03000200
KDCU 202053Z AUTO 32006KT 10SM FEW060 30/20 A2995 RMK AO2 SLP132 T03000200 58017
KDCU 201953Z AUTO 31007KT 10SM FEW100 31/20 A2997 RMK AO2 SLP139 T03060200
KDCU 201853Z AUTO 29007KT 10SM CLR 31/19 A2998 RMK AO2 SLP145 T03110189
KDCU 201753Z AUTO VRB05KT 10SM SCT110 30/19 A3000 RMK AO2 SLP149 60000 T03000194 10306 20239 58006
KDCU 201653Z AUTO 24005KT 10SM CLR 29/20 A3000 RMK AO2 SLP152 T02940200
KDCU 201553Z AUTO VRB03KT 10SM FEW110 30/18 A3001 RMK AO2 RAE01 SLP153 P0000 T03000183
KDCU 201453Z AUTO 00000KT 10SM -RA 27/19 A3001 RMK AO2 RAB25 SLP155 P0000 60000 T02720194 51005
KDCU 201353Z AUTO 00000KT 10SM OVC110 28/19 A3001 RMK AO2 SLP155 T02780189
KDCU 201253Z AUTO 00000KT 10SM 27/18 A3001 RMK AO2 SLP154 T02670183 $
KDCU 201153Z AUTO 00000KT 24/22 A3000 RMK AO2 SLP150 60000 T02390217 10239 20217 53006 $
KDCU 201053Z AUTO 00000KT 10SM 22/21 A2999 RMK AO2 SLP147 T02220211 $
KDCU 200953Z AUTO 00000KT 10SM 23/21 A2998 RMK AO2 SLP144 T02280206 $
KDCU 200853Z AUTO 00000KT 10SM CLR 22/21 A2998 RMK AO2 RAE01 SLP144 P0000 60000 T02220206 58010 $
KDCU 200753Z AUTO 00000KT 10SM -RA FEW100 23/21 A2999 RMK AO2 RAB51 SLP149 P0000 T02280206
KDCU 200653Z AUTO 00000KT 10SM CLR 23/21 A3000 RMK AO2 SLP150 T02280206
KDCU 200553Z AUTO 00000KT 10SM CLR 23/20 A3001 RMK AO2 SLP154 T02280200 10294 20222 403330206 58002
KDCU 200453Z AUTO 00000KT 10SM CLR 23/21 A3001 RMK AO2 SLP156 T02330206
KDCU 200353Z AUTO 00000KT 10SM CLR 23/20 A3002 RMK AO2 SLP158 T02330200
KDCU 200253Z AUTO 00000KT 10SM CLR 26/20 A3002 RMK AO2 SLP156 T02560200 51007
KDCU 200153Z AUTO 32005KT 10SM CLR 27/19 A3001 RMK AO2 SLP154 T02670194
KDCU 200053Z AUTO 32006KT 10SM CLR 28/19 A3000 RMK AO2 SLP151 T02830194